Time;durP1;ratioP1;P1;durP2;ratioP2;P2;SDS_P1;SDS_P2;PMS_P1;PMS_P2;Temp;Humidity;BMP_temperature;BMP_pressure;BME280_temperature;BME280_humidity;BME280_pressure;Samples;Min_cycle;Max_cycle;Signal;HPM_P1;HPM_P2
2023/05/04 03:50:45;;;;;;;5.43;2.55;;;;;;;11.92;100.00;100873.41;6042187;27;20530;-87
2023/05/04 03:53:49;;;;;;;3.58;2.97;;;;;;;12.02;100.00;100880.28;5376744;33;33770;-89
2023/05/04 03:56:52;;;;;;;4.57;2.70;;;;;;;12.09;100.00;100882.28;5379040;33;34297;-89
2023/05/04 03:59:55;;;;;;;2.92;2.72;;;;;;;12.18;100.00;100887.44;5379771;33;32261;-89
2023/05/04 04:03:00;;;;;;;2.97;2.72;;;;;;;12.24;100.00;100891.31;5380545;33;34020;-89
2023/05/04 04:06:06;;;;;;;2.92;2.67;;;;;;;12.24;100.00;100886.75;5379543;33;33488;-89
2023/05/04 04:09:09;;;;;;;3.22;2.80;;;;;;;12.23;100.00;100887.78;5367811;33;34033;-89
2023/05/04 04:12:14;;;;;;;3.20;2.80;;;;;;;12.21;100.00;100886.25;5379452;33;33585;-89
2023/05/04 04:15:17;;;;;;;3.03;2.83;;;;;;;12.12;100.00;100890.84;5379191;33;34246;-89
2023/05/04 04:18:22;;;;;;;3.30;3.00;;;;;;;12.12;100.00;100890.84;5380685;33;33325;-89
2023/05/04 04:21:25;;;;;;;5.95;3.10;;;;;;;12.10;100.00;100900.12;5380850;33;34574;-89
2023/05/04 04:24:28;;;;;;;5.55;3.12;;;;;;;12.12;100.00;100898.97;5368092;33;33807;-89
2023/05/04 04:27:31;;;;;;;3.97;3.62;;;;;;;12.14;100.00;100905.03;5384155;33;33993;-89
2023/05/04 04:30:34;;;;;;;5.25;3.72;;;;;;;12.22;100.00;100904.97;5369899;33;34005;-86
2023/05/04 04:33:37;;;;;;;5.75;4.22;;;;;;;12.32;100.00;100901.25;5381553;33;34585;-86
2023/05/04 04:36:39;;;;;;;6.60;5.30;;;;;;;12.45;100.00;100896.94;5381522;33;34691;-86
2023/05/04 04:39:42;;;;;;;5.78;4.95;;;;;;;12.58;100.00;100895.53;5367811;33;33470;-86
2023/05/04 04:42:45;;;;;;;6.37;4.80;;;;;;;12.67;100.00;100902.56;5389640;33;33788;-87
2023/05/04 04:45:48;;;;;;;8.80;4.78;;;;;;;12.80;100.00;100910.91;5384957;33;35317;-86
2023/05/04 04:48:52;;;;;;;5.78;4.70;;;;;;;12.79;100.00;100906.53;5386847;33;34925;-86
2023/05/04 04:51:55;;;;;;;6.68;4.90;;;;;;;13.01;100.00;100909.41;5384100;33;35084;-86
2023/05/04 04:54:58;;;;;;;4.82;4.12;;;;;;;13.06;100.00;100907.84;5386246;33;33900;-86
2023/05/04 04:58:01;;;;;;;6.78;4.45;;;;;;;13.13;100.00;100910.66;5381997;33;34941;-86
2023/05/04 05:01:06;;;;;;;8.20;4.68;;;;;;;13.17;100.00;100914.69;5379341;33;33421;-86
2023/05/04 05:04:10;;;;;;;5.80;3.80;;;;;;;13.32;100.00;100910.19;5380212;33;33678;-87
2023/05/04 05:07:12;;;;;;;5.87;3.70;;;;;;;13.36;100.00;100913.34;5377647;33;34511;-86
2023/05/04 05:10:15;;;;;;;6.57;4.10;;;;;;;13.52;100.00;100915.94;5379021;33;33525;-86
2023/05/04 05:13:19;;;;;;;4.07;2.87;;;;;;;13.60;100.00;100915.84;5367813;33;34385;-86
2023/05/04 05:16:21;;;;;;;5.03;3.20;;;;;;;13.49;100.00;100913.59;5368129;33;34337;-87
2023/05/04 05:19:25;;;;;;;3.33;3.03;;;;;;;13.52;100.00;100913.22;5378448;33;35035;-87
2023/05/04 05:22:27;;;;;;;3.50;2.70;;;;;;;13.52;100.00;100915.94;5381785;33;35074;-88
2023/05/04 05:25:30;;;;;;;3.53;2.80;;;;;;;13.66;100.00;100924.22;5389294;33;35258;-91
2023/05/04 05:28:33;;;;;;;3.40;2.80;;;;;;;13.80;100.00;100926.13;5380292;33;34111;-92
2023/05/04 05:31:36;;;;;;;3.72;2.55;;;;;;;13.79;100.00;100921.75;5378623;33;34446;-92
2023/05/04 05:34:39;;;;;;;3.20;2.70;;;;;;;13.77;100.00;100927.31;5377784;33;34052;-92
2023/05/04 05:37:42;;;;;;;6.15;2.30;;;;;;;13.96;100.00;100925.13;5366117;33;33545;-89
2023/05/04 05:40:47;;;;;;;2.50;2.30;;;;;;;14.20;98.65;100923.97;5378825;33;35232;-88
2023/05/04 05:43:50;;;;;;;2.58;2.37;;;;;;;14.35;98.53;100913.12;5367752;33;34341;-89
2023/05/04 05:46:55;;;;;;;2.70;2.50;;;;;;;14.33;98.20;100913.28;5379083;33;33468;-88
2023/05/04 05:49:58;;;;;;;2.95;2.65;;;;;;;14.45;94.37;100922.63;5380241;33;33596;-88
2023/05/04 05:53:00;;;;;;;5.03;2.45;;;;;;;14.56;93.96;100923.19;5378905;33;33638;-89
2023/05/04 05:56:07;;;;;;;2.40;2.05;;;;;;;14.53;94.96;100929.84;5369571;33;33925;-88
2023/05/04 05:59:10;;;;;;;2.90;2.40;;;;;;;14.49;92.04;100926.62;5382900;33;33969;-88
2023/05/04 06:02:13;;;;;;;2.55;2.20;;;;;;;14.34;90.62;100933.13;5370538;33;34077;-88
2023/05/04 06:05:17;;;;;;;2.67;2.47;;;;;;;14.45;93.03;100932.59;5372266;33;33906;-88
2023/05/04 06:08:20;;;;;;;3.22;2.28;;;;;;;14.67;91.86;100925.41;5394126;33;34160;-88
2023/05/04 06:11:23;;;;;;;2.65;2.40;;;;;;;14.91;91.08;100925.03;5379966;33;34777;-89
2023/05/04 06:14:26;;;;;;;3.17;1.95;;;;;;;14.99;89.28;100931.38;5365709;33;34070;-89
2023/05/04 06:17:28;;;;;;;2.90;2.60;;;;;;;15.22;89.04;100929.31;5378134;33;33876;-88
2023/05/04 06:20:33;;;;;;;3.62;2.62;;;;;;;15.33;88.32;100933.38;5379161;33;33956;-88
2023/05/04 06:23:37;;;;;;;4.22;2.95;;;;;;;15.40;86.46;100932.37;5380263;33;34401;-88
2023/05/04 06:26:40;;;;;;;2.87;2.67;;;;;;;15.36;87.66;100947.41;5366596;33;33933;-89
2023/05/04 06:29:43;;;;;;;4.05;2.35;;;;;;;15.31;84.81;100954.44;5367005;33;34051;-88
2023/05/04 06:32:45;;;;;;;2.85;2.62;;;;;;;15.53;86.25;100944.38;5367333;33;34772;-88
2023/05/04 06:35:50;;;;;;;3.75;2.62;;;;;;;15.92;84.90;100943.03;5378599;33;33888;-89
2023/05/04 06:38:54;;;;;;;3.00;2.47;;;;;;;16.00;83.87;100943.72;5380528;33;33887;-89
2023/05/04 06:41:58;;;;;;;3.15;2.58;;;;;;;16.17;82.71;100946.09;5366697;33;33801;-88
2023/05/04 06:45:01;;;;;;;3.15;2.53;;;;;;;16.33;80.94;100945.78;5384890;33;34502;-88
2023/05/04 06:48:06;;;;;;;3.92;2.60;;;;;;;16.38;80.69;100940.59;5390638;33;34366;-89
2023/05/04 06:51:09;;;;;;;3.05;2.75;;;;;;;16.38;81.37;100945.16;5381589;33;34048;-89
2023/05/04 06:54:12;;;;;;;2.55;2.35;;;;;;;16.36;80.07;100953.53;5382548;33;34959;-88
2023/05/04 06:57:15;;;;;;;4.40;2.70;;;;;;;16.63;80.23;100951.75;5366261;33;33677;-88
2023/05/04 07:00:20;;;;;;;2.60;2.40;;;;;;;16.69;80.13;100958.25;5366084;33;33910;-89
2023/05/04 07:03:23;;;;;;;2.72;2.40;;;;;;;16.74;80.20;100955.78;5377923;33;34938;-89
2023/05/04 07:06:27;;;;;;;4.72;2.72;;;;;;;16.70;79.76;100959.94;5377514;33;33774;-88
2023/05/04 07:09:30;;;;;;;2.90;2.65;;;;;;;16.71;78.88;100948.84;5375220;33;33876;-88
2023/05/04 07:12:33;;;;;;;3.05;2.60;;;;;;;16.55;80.62;100949.19;5362737;33;33591;-89
2023/05/04 07:15:36;;;;;;;3.05;2.78;;;;;;;16.36;81.46;100936.41;5373522;33;34584;-88
2023/05/04 07:18:39;;;;;;;2.62;2.42;;;;;;;16.31;80.72;100940.53;5385011;33;33910;-88
2023/05/04 07:21:42;;;;;;;2.78;2.58;;;;;;;16.35;82.00;100938.28;5380551;33;33736;-88
2023/05/04 07:24:45;;;;;;;2.72;2.50;;;;;;;16.21;83.94;100950.94;5397943;33;35616;-89
2023/05/04 07:27:48;;;;;;;3.12;2.72;;;;;;;16.27;81.93;100942.00;5362603;33;34140;-89
2023/05/04 07:30:51;;;;;;;3.00;2.60;;;;;;;16.52;81.47;100941.47;5374445;33;33635;-88
2023/05/04 07:33:54;;;;;;;2.53;2.33;;;;;;;16.89;79.76;100947.47;5368034;33;33668;-89
2023/05/04 07:36:57;;;;;;;4.22;2.78;;;;;;;17.04;78.20;100945.41;5369450;33;34805;-89
2023/05/04 07:40:00;;;;;;;2.92;2.60;;;;;;;17.02;77.96;100946.66;5365053;33;34170;-92
2023/05/04 07:43:04;;;;;;;2.95;2.40;;;;;;;16.95;78.05;100947.50;5366364;33;33863;-91
2023/05/04 07:46:07;;;;;;;2.80;2.60;;;;;;;17.35;78.21;100942.09;5378417;33;34992;-92
2023/05/04 07:49:10;;;;;;;2.67;2.47;;;;;;;17.68;79.48;100939.38;5378057;33;33909;-90
2023/05/04 07:52:13;;;;;;;2.65;2.45;;;;;;;17.82;75.08;100947.56;5377720;33;34505;-89
2023/05/04 07:55:17;;;;;;;5.03;2.75;;;;;;;17.91;75.51;100946.28;5373462;33;34639;-89
2023/05/04 07:58:20;;;;;;;2.83;2.50;;;;;;;18.08;75.59;100946.69;5372489;33;33759;-89
2023/05/04 08:01:24;;;;;;;2.67;2.45;;;;;;;18.20;71.70;100944.12;5376080;33;33839;-88
2023/05/04 08:04:27;;;;;;;2.85;2.58;;;;;;;17.96;69.92;100941.06;5357330;33;33552;-88
2023/05/04 08:07:29;;;;;;;3.12;2.70;;;;;;;18.06;71.26;100946.06;5371062;33;33508;-89
2023/05/04 08:10:35;;;;;;;3.30;3.00;;;;;;;18.43;70.67;100949.94;5365851;33;34950;-88
2023/05/04 08:13:39;;;;;;;3.17;2.87;;;;;;;18.55;69.34;100950.91;5377703;33;34562;-89
2023/05/04 08:16:42;;;;;;;4.37;2.37;;;;;;;18.62;66.96;100941.87;5378945;33;33633;-88
2023/05/04 08:19:45;;;;;;;2.92;2.33;;;;;;;18.56;68.25;100959.94;5362107;33;34876;-89
2023/05/04 08:22:48;;;;;;;2.70;2.50;;;;;;;18.65;68.02;100946.88;5378459;33;33839;-88
2023/05/04 08:25:51;;;;;;;4.50;2.80;;;;;;;18.78;66.88;100952.31;5367796;33;33622;-88
2023/05/04 08:29:04;;;;;;;4.47;2.62;;;;;;;19.17;68.54;100951.22;5350566;33;33514;-89
2023/05/04 08:32:07;;;;;;;2.87;2.60;;;;;;;19.46;65.22;100946.19;5369069;33;33821;-88
2023/05/04 08:35:14;;;;;;;3.12;2.83;;;;;;;19.61;65.11;100954.06;5352699;33;34372;-88
2023/05/04 08:38:16;;;;;;;4.60;2.30;;;;;;;19.42;64.13;100959.47;5371355;33;33858;-88
2023/05/04 08:41:22;;;;;;;4.05;2.42;;;;;;;19.40;66.54;100958.00;5367777;33;34055;-88
2023/05/04 08:44:25;;;;;;;5.53;2.67;;;;;;;19.79;64.83;100953.28;5370132;33;33831;-89
2023/05/04 08:47:28;;;;;;;2.65;2.15;;;;;;;19.52;63.88;100953.50;5373547;33;34259;-89
2023/05/04 08:50:33;;;;;;;3.60;2.80;;;;;;;19.36;65.68;100960.31;5368690;33;33803;-88
2023/05/04 08:53:39;;;;;;;3.03;2.72;;;;;;;19.36;65.63;100956.75;5366690;33;35136;-88
2023/05/04 08:56:45;;;;;;;5.32;2.80;;;;;;;19.29;66.20;100951.34;5381855;33;34784;-88
2023/05/04 08:59:51;;;;;;;2.97;2.75;;;;;;;19.31;65.35;100954.72;5384853;33;33893;-88
2023/05/04 09:02:55;;;;;;;6.37;2.55;;;;;;;19.11;66.81;100948.56;5379479;33;34632;-88
2023/05/04 09:05:59;;;;;;;7.57;2.65;;;;;;;19.15;67.74;100950.59;5382074;33;34869;-88
2023/05/04 09:09:03;;;;;;;3.58;2.60;;;;;;;19.42;67.56;100953.13;5380463;33;33860;-88
2023/05/04 09:12:07;;;;;;;2.58;2.35;;;;;;;19.63;64.85;100949.22;5387000;33;34155;-87
2023/05/04 09:15:16;;;;;;;2.75;2.55;;;;;;;20.00;63.26;100949.28;5393452;33;35417;-87
2023/05/04 09:18:19;;;;;;;2.75;2.55;;;;;;;20.47;63.23;100952.34;5391819;33;33735;-87
2023/05/04 09:21:29;;;;;;;2.50;2.30;;;;;;;20.73;61.66;100942.97;5392473;33;34178;-87
2023/05/04 09:24:32;;;;;;;3.75;2.47;;;;;;;20.75;61.38;100940.84;5396702;33;34215;-87
2023/05/04 09:27:36;;;;;;;4.62;2.80;;;;;;;20.84;59.02;100944.94;5394204;33;35714;-88
2023/05/04 09:30:39;;;;;;;3.70;2.47;;;;;;;20.91;59.96;100939.34;5391868;33;34129;-91
2023/05/04 09:33:43;;;;;;;2.75;2.30;;;;;;;20.72;56.82;100938.59;5364815;33;33984;-91
2023/05/04 09:37:03;;;;;;;2.90;2.22;;;;;;;20.92;56.59;100939.16;5381916;33;34568;-88
2023/05/04 09:40:06;;;;;;;3.17;2.80;;;;;;;20.55;57.58;100935.66;5374719;33;33836;-88
2023/05/04 09:43:12;;;;;;;3.53;2.40;;;;;;;21.10;55.46;100934.69;5362695;33;34425;-88
2023/05/04 09:46:17;;;;;;;3.50;2.15;;;;;;;21.33;53.30;100929.25;5382425;33;33600;-87
2023/05/04 09:49:33;;;;;;;4.43;2.55;;;;;;;21.50;52.65;100935.75;5366259;33;33954;-87
2023/05/04 09:52:37;;;;;;;2.65;2.45;;;;;;;21.40;50.13;100937.38;5361967;33;36478;-87
2023/05/04 09:55:45;;;;;;;3.45;2.62;;;;;;;21.61;51.39;100935.97;5391364;33;34311;-88
2023/05/04 09:58:49;;;;;;;2.37;2.17;;;;;;;21.81;48.91;100930.16;5360140;33;314194;-88
2023/05/04 10:01:53;;;;;;;3.70;2.67;;;;;;;21.75;49.50;100931.94;5375910;33;33489;-88
2023/05/04 10:04:57;;;;;;;3.22;1.87;;;;;;;22.16;47.41;100921.87;5375148;33;33947;-88
2023/05/04 10:08:00;;;;;;;2.97;2.17;;;;;;;22.83;47.17;100913.94;5391084;33;33826;-88
2023/05/04 10:11:04;;;;;;;2.30;2.10;;;;;;;22.92;46.73;100917.09;5394016;33;35399;-88
2023/05/04 10:14:07;;;;;;;2.45;1.87;;;;;;;22.55;46.44;100916.66;5362412;33;34621;-87
2023/05/04 10:17:40;;;;;;;2.80;2.20;;;;;;;22.30;46.05;100909.59;5358603;33;33831;-88
2023/05/04 10:20:58;;;;;;;2.58;2.22;;;;;;;22.65;45.73;100903.16;5361191;33;33555;-88
2023/05/04 10:24:26;;;;;;;2.37;2.17;;;;;;;22.59;44.67;100909.62;5360345;33;33461;-88
2023/05/04 10:27:41;;;;;;;2.35;2.22;;;;;;;22.94;43.99;100901.22;5361137;33;34349;-92
2023/05/04 10:30:44;;;;;;;1.92;1.83;;;;;;;23.16;42.65;100895.88;5368010;33;34483;-88
2023/05/04 10:33:47;;;;;;;2.42;2.10;;;;;;;22.86;44.40;100896.12;5379704;33;33599;-88
2023/05/04 10:36:50;;;;;;;3.37;2.40;;;;;;;22.92;43.12;100889.66;5377047;33;34521;-88
2023/05/04 10:39:54;;;;;;;2.28;2.17;;;;;;;23.19;43.92;100883.53;5366925;33;32291;-88
2023/05/04 10:42:57;;;;;;;2.45;2.20;;;;;;;23.45;42.76;100884.78;5379274;33;33678;-88
2023/05/04 10:46:01;;;;;;;3.85;2.12;;;;;;;23.54;45.42;100881.34;5379703;33;32459;-87
2023/05/04 10:49:14;;;;;;;3.62;2.37;;;;;;;23.95;43.57;100881.97;5382315;33;33545;-87
2023/05/04 10:52:17;;;;;;;2.37;2.10;;;;;;;23.88;42.26;100881.34;5384750;33;33359;-88
2023/05/04 10:55:21;;;;;;;2.30;2.10;;;;;;;23.82;42.46;100876.03;5366622;33;34527;-88
2023/05/04 10:58:28;;;;;;;3.53;2.47;;;;;;;24.16;42.27;100874.00;5378605;33;33897;-87
2023/05/04 11:01:42;;;;;;;2.30;2.10;;;;;;;24.42;41.19;100867.75;5365724;33;34899;-87
2023/05/04 11:04:45;;;;;;;2.17;2.08;;;;;;;24.81;41.26;100862.09;5377190;33;33714;-88
2023/05/04 11:07:51;;;;;;;2.80;2.20;;;;;;;25.30;39.53;100862.00;5378205;33;33998;-87
2023/05/04 11:11:03;;;;;;;2.83;2.10;;;;;;;26.20;38.65;100855.62;5375102;33;33888;-87
2023/05/04 11:14:06;;;;;;;2.50;2.30;;;;;;;26.27;40.02;100847.06;5377936;33;34276;-87
2023/05/04 11:17:11;;;;;;;2.40;2.20;;;;;;;26.06;38.40;100848.94;5378750;33;33642;-88
2023/05/04 11:20:25;;;;;;;2.20;2.00;;;;;;;26.59;36.86;100833.97;5377910;33;34879;-88
2023/05/04 11:23:28;;;;;;;1.95;1.85;;;;;;;26.32;36.89;100836.87;5375286;33;33782;-88
2023/05/04 11:26:31;;;;;;;3.20;2.20;;;;;;;26.22;37.37;100834.09;5372218;33;33760;-88
2023/05/04 11:29:34;;;;;;;2.50;2.30;;;;;;;26.83;37.56;100823.22;5387626;33;34414;-87
2023/05/04 11:32:45;;;;;;;2.58;2.37;;;;;;;27.82;35.37;100814.53;5371892;33;35562;-87
2023/05/04 11:35:48;;;;;;;4.60;2.40;;;;;;;28.81;35.14;100814.56;5380587;33;33499;-87
2023/05/04 11:38:55;;;;;;;6.00;2.30;;;;;;;30.00;31.11;100810.28;5373111;33;34133;-88
2023/05/04 11:42:06;;;;;;;3.05;2.20;;;;;;;31.26;28.66;100804.22;5371112;33;33888;-88
2023/05/04 11:45:11;;;;;;;2.15;2.05;;;;;;;30.85;28.92;100799.37;5370169;33;34017;-91
2023/05/04 11:48:14;;;;;;;2.62;2.35;;;;;;;29.27;31.73;100805.00;5372901;33;33715;-92
2023/05/04 11:51:23;;;;;;;2.60;2.40;;;;;;;26.79;34.14;100805.50;5360549;33;34069;-88
2023/05/04 11:54:27;;;;;;;2.72;2.50;;;;;;;26.41;36.44;100801.28;5359486;33;34464;-88
2023/05/04 11:58:03;;;;;;;3.00;2.58;;;;;;;25.43;37.59;100807.50;5361980;33;34501;-87
2023/05/04 12:01:06;;;;;;;2.65;2.45;;;;;;;25.44;38.57;100789.84;5373747;33;33413;-87
2023/05/04 12:04:10;;;;;;;2.78;2.40;;;;;;;25.67;38.57;100803.22;5368784;33;33922;-87
2023/05/04 12:07:13;;;;;;;2.58;2.37;;;;;;;25.46;37.49;100788.50;5368072;33;33822;-87
2023/05/04 12:10:43;;;;;;;2.75;2.55;;;;;;;25.56;37.03;100795.97;5371909;33;32938;-87
2023/05/04 12:13:47;;;;;;;2.62;2.35;;;;;;;25.61;37.29;100792.44;5371089;33;34451;-87
2023/05/04 12:16:56;;;;;;;2.17;2.08;;;;;;;26.54;35.57;100787.00;5373906;33;33385;-87
2023/05/04 12:19:59;;;;;;;2.90;2.30;;;;;;;27.92;33.41;100786.00;5362149;33;34889;-87
2023/05/04 12:23:05;;;;;;;2.83;2.47;;;;;;;26.64;35.85;100778.72;5372317;33;34689;-87
2023/05/04 12:26:09;;;;;;;3.45;2.47;;;;;;;26.09;37.57;100773.88;5367894;33;33890;-87
2023/05/04 12:29:12;;;;;;;2.30;2.10;;;;;;;25.86;37.73;100781.56;5381485;33;34256;-87
2023/05/04 12:32:15;;;;;;;2.33;2.20;;;;;;;27.44;36.76;100769.00;5381045;33;34111;-87
2023/05/04 12:35:18;;;;;;;2.47;2.25;;;;;;;30.02;31.29;100769.19;5389808;33;34018;-88
2023/05/04 12:38:21;;;;;;;2.53;2.33;;;;;;;32.26;28.16;100766.28;5360529;33;33024;-88
2023/05/04 12:41:24;;;;;;;2.65;2.33;;;;;;;33.46;26.03;100768.56;5369873;33;34724;-88
2023/05/04 12:44:27;;;;;;;1.90;1.80;;;;;;;34.21;24.74;100764.69;5377766;33;33561;-87
2023/05/04 12:47:30;;;;;;;2.42;2.00;;;;;;;34.98;24.54;100757.41;5379493;33;34691;-88
2023/05/04 12:50:33;;;;;;;2.20;2.10;;;;;;;32.51;27.12;100762.09;5373791;33;35416;-88
2023/05/04 12:53:37;;;;;;;2.28;2.10;;;;;;;28.93;31.68;100755.97;5383447;33;33987;-88
2023/05/04 12:56:39;;;;;;;2.83;2.33;;;;;;;28.22;32.93;100757.31;5379892;33;33307;-87
2023/05/04 12:59:42;;;;;;;3.90;2.22;;;;;;;29.94;30.46;100753.19;5379952;33;33503;-88
2023/05/04 13:02:45;;;;;;;2.45;2.30;;;;;;;30.99;29.74;100743.81;5367626;33;35147;-88
2023/05/04 13:05:48;;;;;;;2.65;2.17;;;;;;;30.63;30.16;100738.84;5371186;33;34303;-91
2023/05/04 13:08:51;;;;;;;2.22;2.03;;;;;;;29.88;31.88;100746.06;5380326;33;33428;-91
2023/05/04 13:11:54;;;;;;;2.17;1.98;;;;;;;30.95;30.19;100741.66;5367674;33;33717;-92
2023/05/04 13:14:58;;;;;;;2.65;2.30;;;;;;;30.87;29.10;100736.78;5379316;33;34484;-92
2023/05/04 13:18:01;;;;;;;3.78;2.00;;;;;;;33.74;26.20;100744.03;5379879;33;33540;-89
2023/05/04 13:21:06;;;;;;;2.92;1.90;;;;;;;34.79;24.69;100731.75;5383741;33;34739;-91
2023/05/04 13:24:10;;;;;;;1.70;1.60;;;;;;;33.47;25.98;100731.13;5372709;33;33595;-91
2023/05/04 13:27:13;;;;;;;3.03;2.00;;;;;;;30.44;29.28;100730.53;5375624;33;33819;-89
2023/05/04 13:30:20;;;;;;;2.00;1.80;;;;;;;30.21;30.34;100730.31;5364985;33;33867;-90
2023/05/04 13:33:23;;;;;;;3.45;2.17;;;;;;;30.45;29.85;100718.28;5378209;33;33994;-92
2023/05/04 13:36:32;;;;;;;2.15;2.00;;;;;;;29.14;31.74;100723.34;5381573;33;33949;-89
2023/05/04 13:39:43;;;;;;;3.53;2.40;;;;;;;27.37;35.71;100723.09;5371746;33;33752;-91
2023/05/04 13:42:48;;;;;;;2.55;2.30;;;;;;;26.11;37.43;100713.75;5383539;33;33662;-89
2023/05/04 13:45:51;;;;;;;2.30;2.10;;;;;;;24.86;40.15;100718.06;5371522;33;34137;-90
2023/05/04 13:48:54;;;;;;;3.78;2.42;;;;;;;23.49;42.71;100715.59;5359419;33;33778;-89
2023/05/04 13:51:58;;;;;;;2.90;2.60;;;;;;;23.02;45.55;100711.37;5388915;33;33709;-90
2023/05/04 13:55:02;;;;;;;2.75;2.33;;;;;;;22.74;46.17;100709.53;5359610;33;34158;-89
2023/05/04 13:58:04;;;;;;;4.10;2.50;;;;;;;22.68;47.36;100716.03;5369800;33;34808;-91
2023/05/04 14:05:04;;;;;;;3.33;2.55;;;;;;;22.71;46.27;100709.22;5383058;33;33335;-90
2023/05/04 14:08:07;;;;;;;2.50;2.30;;;;;;;23.08;46.30;100710.34;5352807;33;34247;-90
2023/05/04 14:11:12;;;;;;;2.55;2.35;;;;;;;23.21;46.26;100708.31;5367271;33;33549;-90
2023/05/04 14:14:15;;;;;;;3.10;2.80;;;;;;;23.11;46.54;100706.28;5370169;33;33999;-90
2023/05/04 14:17:18;;;;;;;3.30;3.00;;;;;;;23.16;47.40;100711.00;5357947;33;33801;-89
2023/05/04 14:20:21;;;;;;;4.35;2.65;;;;;;;23.40;49.03;100704.19;5361004;33;33358;-89
2023/05/04 14:23:24;;;;;;;3.78;3.17;;;;;;;24.02;46.38;100696.69;5378539;32;33534;-89
2023/05/04 14:26:27;;;;;;;3.00;2.80;;;;;;;24.10;47.04;100702.56;5339313;33;34671;-89
2023/05/04 14:29:32;;;;;;;3.08;2.87;;;;;;;24.37;45.39;100701.72;5385215;27;35079;-89
2023/05/04 14:32:36;;;;;;;2.90;2.50;;;;;;;24.26;46.11;100699.94;5446306;27;35354;-89
2023/05/04 14:46:18;;;;;;;3.60;3.30;;;;;;;22.70;51.55;100705.63;6581379;26;272480;-88
2023/05/04 14:53:33;;;;;;;3.20;2.90;;;;;;;22.68;50.88;100696.81;6590188;27;20057;-89
2023/05/04 14:56:38;;;;;;;7.07;3.17;;;;;;;22.38;50.71;100694.41;6585693;27;33742;-88
2023/05/04 14:59:40;;;;;;;3.35;2.97;;;;;;;21.87;52.24;100696.19;6572448;27;34520;-87
2023/05/04 15:02:44;;;;;;;3.78;3.15;;;;;;;21.65;52.96;100687.81;6586616;27;33745;-87
2023/05/04 15:05:47;;;;;;;4.25;3.37;;;;;;;21.58;53.77;100692.59;6587755;27;34478;-86
2023/05/04 15:08:50;;;;;;;4.47;3.70;;;;;;;21.54;54.61;100696.91;6607599;27;34319;-87
2023/05/04 15:11:52;;;;;;;5.80;3.40;;;;;;;21.39;55.17;100697.41;6576478;27;34375;-87
2023/05/04 15:14:55;;;;;;;3.62;3.28;;;;;;;21.40;54.30;100688.13;6613673;27;33427;-87
2023/05/04 15:17:58;;;;;;;3.37;3.08;;;;;;;21.46;53.99;100690.72;6612378;27;33654;-86
2023/05/04 15:21:01;;;;;;;3.85;3.25;;;;;;;21.48;55.59;100685.00;6576364;27;33935;-86
2023/05/04 15:24:04;;;;;;;5.47;3.90;;;;;;;21.50;55.17;100685.59;6593614;27;33876;-87
2023/05/04 15:27:07;;;;;;;5.00;3.75;;;;;;;21.62;56.55;100688.31;6594007;27;34828;-86
2023/05/04 15:30:10;;;;;;;5.78;3.92;;;;;;;21.76;54.81;100683.34;6623774;27;33806;-86
2023/05/04 15:33:13;;;;;;;4.93;3.95;;;;;;;21.84;54.57;100688.44;6631375;26;35118;-87
2023/05/04 15:36:16;;;;;;;5.57;3.50;;;;;;;22.15;53.89;100687.13;6612306;27;33543;-86
2023/05/04 15:39:19;;;;;;;4.28;3.62;;;;;;;22.45;52.78;100683.25;6611743;27;34517;-86
2023/05/04 15:42:22;;;;;;;5.07;3.87;;;;;;;22.50;52.84;100689.66;6612167;27;33687;-86
2023/05/04 15:45:25;;;;;;;5.82;3.42;;;;;;;22.24;53.57;100685.66;6609601;27;34483;-86
2023/05/04 15:48:28;;;;;;;3.72;3.42;;;;;;;22.10;53.69;100687.84;6587574;27;33438;-87
2023/05/04 15:51:31;;;;;;;5.12;3.83;;;;;;;22.22;53.31;100687.81;6606252;27;33462;-87
2023/05/04 15:54:34;;;;;;;4.10;3.70;;;;;;;21.98;53.47;100681.59;6607649;27;34558;-86
2023/05/04 15:57:37;;;;;;;3.80;3.40;;;;;;;21.77;54.46;100683.12;6597990;27;33408;-87
2023/05/04 16:00:40;;;;;;;4.85;3.70;;;;;;;21.74;54.80;100672.66;6626702;27;33875;-87
2023/05/04 16:03:43;;;;;;;4.25;3.87;;;;;;;21.51;55.49;100671.66;6628151;26;33782;-87
2023/05/04 16:06:47;;;;;;;5.40;4.00;;;;;;;21.00;57.65;100684.25;6606353;27;36637;-87
